createdAt,value
2019-01-15T00:02:07.486Z,12.90
2019-01-15T00:04:38.502Z,21.63
2019-01-15T00:07:09.413Z,17.80
2019-01-15T00:09:40.424Z,19.40
2019-01-15T00:12:11.373Z,19.50
2019-01-15T00:14:42.384Z,14.73
2019-01-15T00:17:13.345Z,18.20
2019-01-15T00:19:44.338Z,24.37
2019-01-15T00:22:15.296Z,17.47
2019-01-15T00:24:46.217Z,27.13
2019-01-15T00:27:17.112Z,20.03
2019-01-15T00:29:48.104Z,21.33
2019-01-15T00:32:19.037Z,18.20
2019-01-15T00:34:50.032Z,15.33
2019-01-15T00:37:20.953Z,14.27
2019-01-15T00:39:51.901Z,13.60
2019-01-15T00:42:22.819Z,13.73
2019-01-15T00:44:53.822Z,11.20
2019-01-15T00:47:24.720Z,11.03
2019-01-15T00:49:55.662Z,11.73
2019-01-15T00:52:26.646Z,17.87
2019-01-15T00:54:57.565Z,14.33
2019-01-15T00:57:28.479Z,12.03
2019-01-15T00:59:59.428Z,17.97
2019-01-15T01:02:30.350Z,18.67
2019-01-15T01:05:01.407Z,22.60
2019-01-15T01:07:32.408Z,22.63
2019-01-15T01:10:03.384Z,11.87
2019-01-15T01:12:34.361Z,19.57
2019-01-15T01:15:06.271Z,15.73
2019-01-15T01:17:37.255Z,19.13
2019-01-15T01:20:09.612Z,14.07
2019-01-15T01:22:40.605Z,20.10
2019-01-15T01:25:12.157Z,14.30
2019-01-15T01:27:43.086Z,16.17
2019-01-15T01:30:19.185Z,14.37
2019-01-15T01:32:50.103Z,16.97
2019-01-15T01:35:21.025Z,13.93
2019-01-15T01:37:52.005Z,19.23
2019-01-15T01:40:22.949Z,14.77
2019-01-15T01:42:53.859Z,14.97
2019-01-15T01:45:24.807Z,14.20
2019-01-15T01:47:55.728Z,17.47
2019-01-15T01:50:27.631Z,20.17
2019-01-15T01:52:58.685Z,11.20
2019-01-15T01:55:29.619Z,18.20
2019-01-15T01:58:00.534Z,13.33
2019-01-15T02:00:31.471Z,18.90
2019-01-15T02:03:02.476Z,17.20
2019-01-15T02:05:33.472Z,15.43
2019-01-15T02:08:04.984Z,21.63
2019-01-15T02:10:36.006Z,18.10
2019-01-15T02:13:06.940Z,15.10
2019-01-15T02:15:37.887Z,13.60
2019-01-15T02:18:08.856Z,16.80
2019-01-15T02:20:39.883Z,12.53
2019-01-15T02:23:10.883Z,17.90
2019-01-15T02:25:41.902Z,20.57
2019-01-15T02:28:12.816Z,18.47
2019-01-15T02:30:43.829Z,15.60
2019-01-15T02:33:14.748Z,18.93
2019-01-15T02:35:45.682Z,16.63
2019-01-15T02:38:17.274Z,19.07
2019-01-15T02:40:48.278Z,18.13
2019-01-15T02:43:19.194Z,13.93
2019-01-15T02:45:50.150Z,14.63
2019-01-15T02:48:21.054Z,15.93
2019-01-15T02:50:52.190Z,16.50
2019-01-15T02:53:23.123Z,11.83
2019-01-15T02:55:54.087Z,15.13
2019-01-15T02:58:24.996Z,14.40
2019-01-15T03:00:55.931Z,14.07
2019-01-15T03:03:26.844Z,20.00
2019-01-15T03:05:57.781Z,18.77
2019-01-15T03:08:28.723Z,18.23
2019-01-15T03:10:59.654Z,14.70
2019-01-15T03:13:30.578Z,24.70
2019-01-15T03:16:01.578Z,17.07
2019-01-15T03:18:32.513Z,13.33
2019-01-15T03:21:03.461Z,17.73
2019-01-15T03:23:34.375Z,16.00
2019-01-15T03:26:05.408Z,14.87
2019-01-15T03:28:36.305Z,19.37
2019-01-15T03:31:07.252Z,13.30
2019-01-15T03:33:38.141Z,14.07
2019-01-15T03:36:09.149Z,13.07
2019-01-15T03:38:40.066Z,19.13
2019-01-15T03:41:11.041Z,24.07
2019-01-15T03:43:41.955Z,13.97
2019-01-15T03:46:12.912Z,19.70
2019-01-15T03:48:43.821Z,18.27
2019-01-15T03:51:14.862Z,18.13
2019-01-15T03:53:45.786Z,15.67
2019-01-15T03:56:16.732Z,19.67
2019-01-15T03:58:47.724Z,19.53
2019-01-15T04:01:18.668Z,21.23
2019-01-15T04:03:49.590Z,19.80
2019-01-15T04:06:20.648Z,11.80
2019-01-15T04:08:51.621Z,26.37
2019-01-15T04:11:22.628Z,24.43
2019-01-15T04:13:53.544Z,13.23
2019-01-15T04:16:24.450Z,22.47
2019-01-15T04:18:55.381Z,12.10
2019-01-15T04:21:26.322Z,20.63
2019-01-15T04:23:57.226Z,18.13
2019-01-15T04:26:28.132Z,19.40
2019-01-15T04:28:59.035Z,17.23
2019-01-15T04:31:29.976Z,16.50
2019-01-15T04:34:00.866Z,23.20
2019-01-15T04:36:31.779Z,18.93
2019-01-15T04:39:03.478Z,17.83
2019-01-15T04:41:35.418Z,19.30
2019-01-15T04:44:06.403Z,24.70
2019-01-15T04:46:37.361Z,15.67
2019-01-15T04:49:08.306Z,18.90
2019-01-15T04:51:39.195Z,18.00
2019-01-15T04:54:10.112Z,10.80
2019-01-15T04:56:41.218Z,14.87
2019-01-15T04:59:12.207Z,19.87
2019-01-15T05:01:43.124Z,21.20
2019-01-15T05:04:14.035Z,14.13
2019-01-15T05:06:45.006Z,16.93
2019-01-15T05:09:15.963Z,21.93
2019-01-15T05:11:46.893Z,17.47
2019-01-15T05:14:18.929Z,23.10
2019-01-15T05:16:50.934Z,22.20
2019-01-15T05:19:21.870Z,16.77
2019-01-15T05:21:52.779Z,21.20
2019-01-15T05:24:23.803Z,24.70
2019-01-15T05:26:54.727Z,25.33
2019-01-15T05:29:25.677Z,13.87
2019-01-15T05:31:56.638Z,17.53
2019-01-15T05:34:27.576Z,26.67
2019-01-15T05:36:58.514Z,14.93
2019-01-15T05:39:29.466Z,21.13
2019-01-15T05:42:00.510Z,26.93
2019-01-15T05:44:31.557Z,12.67
2019-01-15T05:47:02.460Z,20.70
2019-01-15T05:49:33.443Z,21.17
2019-01-15T05:52:04.367Z,24.93
2019-01-15T05:54:35.384Z,21.17
2019-01-15T05:57:06.300Z,20.67
2019-01-15T05:59:37.293Z,23.37
2019-01-15T06:02:08.273Z,19.50
2019-01-15T06:04:39.256Z,20.77
2019-01-15T06:07:10.213Z,16.63
2019-01-15T06:09:41.158Z,23.27
2019-01-15T06:12:12.097Z,20.53
2019-01-15T06:14:43.035Z,14.37
2019-01-15T06:17:14.045Z,20.87
2019-01-15T06:19:45.131Z,22.73
2019-01-15T06:22:16.088Z,19.70
2019-01-15T06:24:47.334Z,22.47
2019-01-15T06:27:18.305Z,19.00
2019-01-15T06:29:49.302Z,14.80
2019-01-15T06:32:20.279Z,13.83
2019-01-15T06:34:51.219Z,25.73
2019-01-15T06:37:22.156Z,34.27
2019-01-15T06:39:53.094Z,29.67
2019-01-15T06:42:24.095Z,16.67
2019-01-15T06:44:55.036Z,20.23
2019-01-15T06:47:26.042Z,25.63
2019-01-15T06:49:56.958Z,24.90
2019-01-15T06:52:27.886Z,22.10
2019-01-15T06:54:58.834Z,26.90
2019-01-15T06:57:29.753Z,19.67
2019-01-15T07:00:00.702Z,19.73
2019-01-15T07:02:31.918Z,30.57
2019-01-15T07:05:02.921Z,26.20
2019-01-15T07:07:33.837Z,25.70
2019-01-15T07:10:05.744Z,45.13
2019-01-15T07:12:36.837Z,25.03
2019-01-15T07:15:07.857Z,28.23
2019-01-15T07:17:38.793Z,36.10
2019-01-15T07:20:10.649Z,29.73
2019-01-15T07:22:41.660Z,29.63
2019-01-15T07:25:13.747Z,33.20
2019-01-15T07:27:44.742Z,31.83
2019-01-15T07:30:21.628Z,38.70
2019-01-15T07:32:52.564Z,34.97
2019-01-15T07:35:23.498Z,33.80
2019-01-15T07:37:54.569Z,24.93
2019-01-15T07:40:25.507Z,24.93
2019-01-15T07:42:56.447Z,20.70
2019-01-15T07:45:27.363Z,23.43
2019-01-15T07:47:58.404Z,23.57
2019-01-15T07:50:29.322Z,27.13
2019-01-15T07:53:00.304Z,24.67
2019-01-15T07:55:31.235Z,22.63
2019-01-15T07:58:02.268Z,28.40
2019-01-15T08:00:33.304Z,25.77
2019-01-15T08:03:04.571Z,25.40
2019-01-15T08:05:35.494Z,18.33
2019-01-15T08:08:06.475Z,19.33
2019-01-15T08:10:37.547Z,20.30
2019-01-15T08:13:08.811Z,21.67
2019-01-15T08:15:39.812Z,21.10
2019-01-15T08:18:10.896Z,18.10
2019-01-15T08:20:41.918Z,17.17
2019-01-15T08:23:12.910Z,16.73
2019-01-15T08:25:43.848Z,15.43
2019-01-15T08:28:14.885Z,20.63
2019-01-15T08:30:45.807Z,18.63
2019-01-15T08:33:16.819Z,19.27
2019-01-15T08:35:47.905Z,13.87
2019-01-15T08:38:18.952Z,18.77
2019-01-15T08:40:49.948Z,17.67
2019-01-15T08:43:20.962Z,21.00
2019-01-15T08:45:55.396Z,21.87
2019-01-15T08:48:26.903Z,17.47
2019-01-15T08:50:58.411Z,25.17
2019-01-15T08:53:29.535Z,21.93
2019-01-15T08:56:01.201Z,17.33
2019-01-15T08:58:32.149Z,17.93
2019-01-15T09:01:03.177Z,17.07
2019-01-15T09:03:34.148Z,16.53
2019-01-15T09:06:05.187Z,16.97
2019-01-15T09:08:36.244Z,22.87
2019-01-15T09:11:07.281Z,12.73
2019-01-15T09:13:38.387Z,15.63
2019-01-15T09:16:09.438Z,15.50
2019-01-15T09:18:40.824Z,11.47
2019-01-15T09:21:11.920Z,9.37
2019-01-15T09:23:42.892Z,11.07
2019-01-15T09:26:15.386Z,13.90
2019-01-15T09:28:46.671Z,11.40
2019-01-15T09:31:17.708Z,11.60
2019-01-15T09:33:48.753Z,20.53
2019-01-15T09:36:19.717Z,19.50
2019-01-15T09:38:50.649Z,18.27
2019-01-15T09:41:21.614Z,18.87
2019-01-15T09:43:52.759Z,19.33
2019-01-15T09:46:23.741Z,14.30
2019-01-15T09:48:54.723Z,19.43
2019-01-15T09:51:25.736Z,16.97
2019-01-15T09:54:15.442Z,21.07
2019-01-15T10:04:04.727Z,27.10
2019-01-15T10:06:35.694Z,24.90
2019-01-15T10:09:09.412Z,25.83
2019-01-15T10:11:40.458Z,28.40
2019-01-15T10:14:11.454Z,35.43
2019-01-15T10:16:42.415Z,33.43
2019-01-15T10:19:13.426Z,37.43
2019-01-15T10:21:45.373Z,36.03
2019-01-15T10:24:16.390Z,30.10
2019-01-15T10:26:47.414Z,27.43
2019-01-15T10:29:20.867Z,32.23
2019-01-15T10:32:37.796Z,37.97
2019-01-15T10:35:13.814Z,27.40
2019-01-15T10:37:44.827Z,29.80
2019-01-15T10:40:15.788Z,27.37
2019-01-15T10:42:46.784Z,28.80
2019-01-15T10:45:17.821Z,27.60
2019-01-15T10:47:48.832Z,31.50
2019-01-15T10:50:20.973Z,25.23
2019-01-15T10:52:52.995Z,24.13
2019-01-15T10:55:24.005Z,18.73
2019-01-15T10:57:55.014Z,24.93
2019-01-15T11:00:25.937Z,25.37
2019-01-15T11:02:56.952Z,21.13
2019-01-15T11:05:27.877Z,30.70
2019-01-15T11:07:58.808Z,21.80
2019-01-15T11:10:29.862Z,20.90
2019-01-15T11:13:02.378Z,21.07
2019-01-15T11:15:34.539Z,17.87
2019-01-15T11:18:06.594Z,27.00
2019-01-15T11:20:37.599Z,22.10
2019-01-15T11:23:08.556Z,20.70
2019-01-15T11:25:39.598Z,25.20
2019-01-15T11:28:10.663Z,22.53
2019-01-15T11:30:41.752Z,26.20
2019-01-15T11:33:12.848Z,23.57
2019-01-15T11:35:43.860Z,26.37
2019-01-15T11:38:14.901Z,20.80
2019-01-15T11:40:45.865Z,21.67
2019-01-15T11:43:16.932Z,32.47
2019-01-15T11:45:47.992Z,26.93
2019-01-15T11:48:19.045Z,22.83
2019-01-15T11:50:49.960Z,18.33
2019-01-15T11:53:20.947Z,27.13
2019-01-15T11:55:52.065Z,23.97
2019-01-15T11:58:23.207Z,16.37
2019-01-15T12:00:59.156Z,24.73
2019-01-15T12:03:55.339Z,22.90
2019-01-15T12:06:45.149Z,16.63
2019-01-15T12:09:33.753Z,21.77
2019-01-15T12:12:29.378Z,21.93
2019-01-15T12:15:19.319Z,23.80
2019-01-15T12:18:08.389Z,23.73
2019-01-15T12:20:51.183Z,25.80
2019-01-15T12:23:56.340Z,20.83
2019-01-15T12:26:50.602Z,18.47
2019-01-15T12:29:58.815Z,19.17
2019-01-15T12:32:51.505Z,18.00
2019-01-15T12:35:47.263Z,22.87
2019-01-15T12:38:43.039Z,18.87
2019-01-15T12:41:42.073Z,24.43
2019-01-15T12:44:50.371Z,19.33
2019-01-15T12:47:34.705Z,17.23
2019-01-15T12:50:18.226Z,17.23
2019-01-15T12:53:26.530Z,19.53
2019-01-15T12:56:19.653Z,19.57
2019-01-15T12:59:09.536Z,18.60
2019-01-15T13:02:02.299Z,19.37
2019-01-15T13:05:07.571Z,18.30
2019-01-15T13:08:08.298Z,17.77
2019-01-15T13:11:07.273Z,20.40
2019-01-15T13:13:59.902Z,14.93
2019-01-15T13:16:52.598Z,24.53
2019-01-15T13:19:48.585Z,28.27
2019-01-15T13:22:39.144Z,16.83
2019-01-15T13:25:32.960Z,22.30
2019-01-15T13:28:29.032Z,18.20
2019-01-15T13:31:18.993Z,27.27
2019-01-15T13:34:08.835Z,24.13
2019-01-15T13:36:57.669Z,23.13
2019-01-15T13:39:47.643Z,23.20
2019-01-15T13:42:52.929Z,25.23
2019-01-15T13:45:45.915Z,23.93
2019-01-15T13:48:41.977Z,23.07
2019-01-15T13:51:30.615Z,30.53
2019-01-15T13:54:19.070Z,29.83
2019-01-15T13:57:18.103Z,28.80
2019-01-15T14:00:02.625Z,24.03
2019-01-15T14:02:56.817Z,24.43
2019-01-15T14:05:38.200Z,26.53
2019-01-15T14:08:43.335Z,31.20
2019-01-15T14:11:31.806Z,25.43
2019-01-15T14:14:24.445Z,22.23
2019-01-15T14:17:14.294Z,24.10
2019-01-15T14:20:03.022Z,24.40
2019-01-15T14:22:59.223Z,20.20
2019-01-15T14:25:59.352Z,20.30
2019-01-15T14:28:46.510Z,20.27
2019-01-15T14:31:54.783Z,22.27
2019-01-15T14:34:44.758Z,23.23
2019-01-15T14:37:43.479Z,26.93
2019-01-15T14:40:37.350Z,27.63
2019-01-15T14:43:27.195Z,25.83
2019-01-15T14:46:15.608Z,27.50
2019-01-15T14:49:04.468Z,28.53
2019-01-15T14:51:54.311Z,29.83
2019-01-15T14:54:44.264Z,33.80
2019-01-15T14:57:37.240Z,35.53
2019-01-15T15:00:26.897Z,39.50
2019-01-15T15:03:22.382Z,41.57
2019-01-15T15:06:08.252Z,42.80
2019-01-15T15:08:59.485Z,39.70
2019-01-15T15:11:47.927Z,41.63
2019-01-15T15:14:31.834Z,40.40
2019-01-15T15:17:20.380Z,39.87
2019-01-15T15:20:10.321Z,35.87
2019-01-15T15:22:52.071Z,40.00
2019-01-15T15:25:45.081Z,36.47
2019-01-15T15:28:43.847Z,39.20
2019-01-15T15:31:32.921Z,38.10
2019-01-15T15:34:26.199Z,34.43
2019-01-15T15:37:14.747Z,32.17
2019-01-15T15:40:04.749Z,42.00
2019-01-15T15:42:57.679Z,41.07
2019-01-15T15:45:50.495Z,47.27
2019-01-15T15:48:46.159Z,34.00
2019-01-15T15:51:31.892Z,26.17
2019-01-15T15:54:28.001Z,27.47
2019-01-15T15:57:17.847Z,29.23
2019-01-15T16:00:06.533Z,29.33
2019-01-15T16:03:05.638Z,31.67
2019-01-15T16:06:07.695Z,27.30
2019-01-15T16:09:09.923Z,25.77
2019-01-15T16:11:58.830Z,28.10
2019-01-15T16:14:45.706Z,33.77
2019-01-15T16:17:35.540Z,24.97
2019-01-15T16:20:29.312Z,33.70
2019-01-15T16:23:28.399Z,31.70
2019-01-15T16:26:17.726Z,36.70
2019-01-15T16:29:23.003Z,35.13
2019-01-15T16:32:11.747Z,49.63
2019-01-15T16:35:07.764Z,49.00
2019-01-15T16:37:56.285Z,61.70
2019-01-15T16:40:53.210Z,58.37
2019-01-15T16:43:39.912Z,56.27
2019-01-15T16:46:26.643Z,59.93
2019-01-15T16:49:20.448Z,58.67
2019-01-15T16:52:09.231Z,56.30
2019-01-15T16:55:05.306Z,57.07
2019-01-15T16:58:01.073Z,54.90
2019-01-15T17:01:08.896Z,50.43
2019-01-15T17:03:52.902Z,57.57
2019-01-15T17:06:54.920Z,49.43
2019-01-15T17:09:43.678Z,59.47
2019-01-15T17:12:31.502Z,54.77
2019-01-15T17:15:36.468Z,50.43
2019-01-15T17:18:29.352Z,56.63
2019-01-15T17:21:13.721Z,51.40
2019-01-15T17:24:02.546Z,57.63
2019-01-15T17:27:07.843Z,48.67
2019-01-15T17:30:03.878Z,53.77
2019-01-15T17:32:53.511Z,52.63
2019-01-15T17:35:44.958Z,52.23
2019-01-15T17:38:37.874Z,55.77
2019-01-15T17:41:26.739Z,57.67
2019-01-15T17:44:05.577Z,46.03
2019-01-15T17:47:04.891Z,48.13
2019-01-15T17:49:53.845Z,46.53
2019-01-15T17:52:52.013Z,42.30
2019-01-15T17:55:57.018Z,44.07
2019-01-15T17:58:51.451Z,42.90
2019-01-15T18:01:33.706Z,42.00
2019-01-15T18:04:24.462Z,37.93
2019-01-15T18:07:13.225Z,37.97
2019-01-15T18:10:01.671Z,38.93
2019-01-15T18:13:03.565Z,37.93
2019-01-15T18:15:50.089Z,52.07
2019-01-15T18:18:28.606Z,39.43
2019-01-15T18:21:17.040Z,40.03
2019-01-15T18:24:06.895Z,41.17
2019-01-15T18:27:02.772Z,40.20
2019-01-15T18:29:51.213Z,118.17
2019-01-15T18:32:46.851Z,59.37
2019-01-15T18:35:39.480Z,41.90
2019-01-15T18:38:35.452Z,43.93
2019-01-15T18:41:25.280Z,43.77
2019-01-15T18:44:22.063Z,42.60
2019-01-15T18:47:24.016Z,42.20
2019-01-15T18:50:16.688Z,45.20
2019-01-15T18:53:10.304Z,49.80
2019-01-15T18:56:03.236Z,41.50
2019-01-15T18:58:51.932Z,43.67
2019-01-15T19:01:40.700Z,40.67
2019-01-15T19:04:25.653Z,42.63
2019-01-15T19:07:16.675Z,44.60
2019-01-15T19:10:18.699Z,41.97
2019-01-15T19:13:06.770Z,45.83
2019-01-15T19:16:06.481Z,42.73
2019-01-15T19:18:55.868Z,44.13
2019-01-15T19:21:44.388Z,39.50
2019-01-15T19:24:27.511Z,43.87
2019-01-15T19:27:13.822Z,40.67
2019-01-15T19:30:08.088Z,45.10
2019-01-15T19:33:11.408Z,41.87
2019-01-15T19:36:00.047Z,47.47
2019-01-15T19:38:53.016Z,50.23
2019-01-15T19:41:49.042Z,48.80
2019-01-15T19:44:35.539Z,48.90
2019-01-15T19:47:24.126Z,45.13
2019-01-15T19:50:23.093Z,48.63
2019-01-15T19:53:13.049Z,48.77
2019-01-15T19:56:09.150Z,47.63
2019-01-15T19:59:08.373Z,43.00
2019-01-15T20:01:56.822Z,47.13
2019-01-15T20:04:49.995Z,54.60
2019-01-15T20:07:52.191Z,54.43
2019-01-15T20:10:42.445Z,52.13
2019-01-15T20:13:32.381Z,52.47
2019-01-15T20:16:22.253Z,61.20
2019-01-15T20:19:27.225Z,60.13
2019-01-15T20:22:10.196Z,69.03
2019-01-15T20:25:00.030Z,70.73
2019-01-15T20:27:59.093Z,70.20
2019-01-15T20:31:00.956Z,72.03
2019-01-15T20:33:49.362Z,72.77
2019-01-15T20:36:32.676Z,77.67
2019-01-15T20:39:31.653Z,74.17
2019-01-15T20:42:24.587Z,73.73
2019-01-15T20:45:10.943Z,69.57
2019-01-15T20:47:52.763Z,64.00
2019-01-15T20:51:03.648Z,64.13
2019-01-15T20:53:52.472Z,63.20
2019-01-15T20:56:41.167Z,49.40
2019-01-15T20:59:34.717Z,45.07
2019-01-15T21:02:17.148Z,42.87
2019-01-15T21:05:16.135Z,40.70
2019-01-15T21:08:06.076Z,44.20
2019-01-15T21:11:02.312Z,33.83
2019-01-15T21:13:56.462Z,30.63
2019-01-15T21:16:44.923Z,25.73
2019-01-15T21:19:37.667Z,23.03
2019-01-15T21:22:26.169Z,21.93
2019-01-15T21:25:22.145Z,19.73
2019-01-15T21:28:20.873Z,18.93
2019-01-15T21:31:09.577Z,20.83
2019-01-15T21:34:03.569Z,16.30
2019-01-15T21:37:05.493Z,17.67
2019-01-15T21:39:54.297Z,16.60
2019-01-15T21:42:42.867Z,16.80
2019-01-15T21:45:35.672Z,16.03
2019-01-15T21:48:24.576Z,14.07
2019-01-15T21:51:13.290Z,17.37
2019-01-15T21:54:12.115Z,14.40
2019-01-15T21:57:06.001Z,13.47
2019-01-15T21:59:54.914Z,17.37
2019-01-15T22:02:51.064Z,16.93
2019-01-15T22:05:36.356Z,17.13
2019-01-15T22:08:26.846Z,15.40
2019-01-15T22:11:28.820Z,14.40
2019-01-15T22:14:17.652Z,16.83
2019-01-15T22:17:07.627Z,15.50
2019-01-15T22:20:00.612Z,14.80
2019-01-15T22:22:56.755Z,14.60
2019-01-15T22:25:45.506Z,18.43
2019-01-15T22:28:44.394Z,13.40
2019-01-15T22:31:39.373Z,12.60
2019-01-15T22:34:29.383Z,13.57
2019-01-15T22:37:22.272Z,14.83
2019-01-15T22:40:13.019Z,15.47
2019-01-15T22:43:02.645Z,17.73
2019-01-15T22:45:51.321Z,14.57
2019-01-15T22:48:41.231Z,12.43
2019-01-15T22:51:42.974Z,14.83
2019-01-15T22:54:26.332Z,13.30
2019-01-15T22:57:16.238Z,18.40
2019-01-15T23:00:05.248Z,12.50
2019-01-15T23:02:54.840Z,12.47
2019-01-15T23:05:39.688Z,14.33
2019-01-15T23:08:28.177Z,15.83
2019-01-15T23:11:17.008Z,14.17
2019-01-15T23:14:05.731Z,17.53
2019-01-15T23:17:04.687Z,18.27
2019-01-15T23:20:06.433Z,12.57
2019-01-15T23:23:08.466Z,16.23
2019-01-15T23:25:58.686Z,16.60
2019-01-15T23:28:48.615Z,17.50
2019-01-15T23:31:27.574Z,13.43
2019-01-15T23:34:17.513Z,19.93
2019-01-15T23:37:01.326Z,13.77
2019-01-15T23:39:55.218Z,13.70
2019-01-15T23:42:49.163Z,16.03
2019-01-15T23:45:44.936Z,16.53
2019-01-15T23:48:33.546Z,12.60
2019-01-15T23:51:22.304Z,14.87
2019-01-15T23:54:30.774Z,13.90
2019-01-15T23:57:19.483Z,14.03
